Fresno Yosemite International Airport
KFAT : rendu visible

Aérodrome :











RETROUVEZ-NOUS SUR...

 
LOGIN :

S'inscrire | Disclaimer

   EN    FR    IT 

 









Légende :    VFR   VFR Marginal   IFR   IFR Intensif   IFR Très Intensif
Visi : 
Plafond : 
>= 8 km
>= 3000ft
5 à 8 km
1000 à 3000 ft
1500m à 5 km
500 à 1000 ft
800 à 1500m
200 à 500 ft
< 800m
< 200 ft
Symboles :   Orages  Brouillard  Fortes neiges  Fortes précipitations  Vent > 20 kt






- Altitude de l'aérodrome : 336 ft
- Code IATA : FAT


KFAT - Fresno Yosemite International

DERNIER METAR :
  • 200153Z 28003KT 10SM FEW040 29/08 A2989 RMK AO2 SLP117 FU FEW040 HZ FU DSNT ALQDS T02890078

METARs EXPIRÉS :
  • 200053Z 31006KT 10SM FEW050 31/08 A2989 RMK AO2 SLP118 FU FEW050 MTNS OBSC FU HZ DSNT N-E-SE T03060078
  • 192353Z 32005KT 10SM FEW050 32/08 A2990 RMK AO2 SLP120 FU FEW050 MTNS OBSC FU HZ DSNT N-E-SE T03170078 10328 20256 56013

TAF KFAT
Valide du 20 à 00h jusqu'au 21 à 00h UTC


192320Z 2000/2024 VRB04KT P6SM FEW200
FIR KZOA / Amérique du Nord



MET'MAP, la Météo Aéronautique d'un coup d'oeil ! - Copyright ORBIFLY Décembre 2007 - Disclaimer

ORBIFLY MET'MAP TEAM :

Programmation & Développement : Alexandra Zaïnal
Sur une idée originale de : Baudouin d'Aumeries
Assistance à la programmation : Marc-Olivier Méhu
Soutien technique & logistique : Manuel Goepfert

Contact : metmap@orbifly.com




SOURCES & CREDITS :

   NOAA       Earth
Advisory